Ferry Kyoto II — JI3701 — position and weather

sailwx.info

Track history (hours):
 
Tides and Currents Weather Stations Pressure Air Temp Water Temp Dewpoint Dewpoint Depression Visibility Wind Speed Wind Dir Waves Ship Positions

Ferry Kyoto II

Last reported at 2017-May-29 22:26 UTC. Time now 2017-May-29 22:49 UTC.
Position N 34°37' E 135°26'.

Length 167 m; draft 5.9 m.

Type: Ship. MMSI: 431301641.

Date/timePositionNaut miles runAvg speedWind from/ knotsBaromVisibWave heightAir tempDewpointWater temp
2017-May-29 22:26N 34°37' E 135°26'0 0.0
2017-May-29 21:50N 34°37' E 135°26'0 0.0
2017-May-29 21:26N 34°37' E 135°26'0 0.0
2017-May-29 20:50N 34°37' E 135°26'0 0.0
2017-May-29 20:30N 34°37' E 135°26'4 8.3
2017-May-29 20:00N 34°37' E 135°21'1019.7
2017-May-29 19:30N 34°35' E 135°09'1019.5
2017-May-29 19:00N 34°36' E 134°57'1020.8
2017-May-29 18:30N 34°32' E 134°46'4 0.1
2017-May-28 09:38N 34°34' E 134°49'323.2
2017-May-28 09:30N 34°35' E 134°53'1019.9
2017-May-28 09:00N 34°36' E 135°05'1121.1
2017-May-28 08:30N 34°37' E 135°17'713.8
2017-May-28 08:01N 34°37' E 135°26'0 0.1
2017-May-28 07:29N 34°37' E 135°26'0 0.0
2017-May-28 06:59N 34°37' E 135°26'0 0.0
2017-May-28 06:29N 34°37' E 135°26'0 0.0
2017-May-28 05:59N 34°37' E 135°26'0 0.0
2017-May-28 05:29N 34°37' E 135°26'0 0.0
2017-May-28 04:59N 34°37' E 135°26'0 0.0
2017-May-28 04:29N 34°37' E 135°26'0 0.0
2017-May-28 03:47N 34°37' E 135°26'0 0.0
2017-May-28 03:29N 34°37' E 135°26'0 0.0
2017-May-28 02:59N 34°37' E 135°26'0 0.0
2017-May-28 02:29N 34°37' E 135°26'0 0.0
2017-May-28 01:59N 34°37' E 135°26'0 0.0
2017-May-28 01:29N 34°37' E 135°26'0 0.0
2017-May-28 00:59N 34°37' E 135°26'0 0.0
2017-May-28 00:29N 34°37' E 135°26'0 0.0
2017-May-27 23:59N 34°37' E 135°26'0 0.0
2017-May-27 23:23N 34°37' E 135°26'0 0.0
2017-May-27 22:59N 34°37' E 135°26'0 0.0
2017-May-27 22:29N 34°37' E 135°26'0 0.0
2017-May-27 21:59N 34°37' E 135°26'0 0.0
2017-May-27 21:29N 34°37' E 135°26'0 0.0
2017-May-27 20:59N 34°37' E 135°26'0 0.0
2017-May-27 20:30N 34°37' E 135°26'3 5.4
2017-May-27 20:00N 34°38' E 135°23'713.8
2017-May-27 19:30N 34°35' E 135°15'816.2
2017-May-27 19:00N 34°35' E 135°05'1020.1
2017-May-27 18:30N 34°35' E 134°53'4 0.1
2017-May-26 09:38N 34°34' E 134°48'325.2
2017-May-26 09:31N 34°35' E 134°52'1122.7
2017-May-26 09:00N 34°36' E 135°06'1121.5
2017-May-26 08:30N 34°37' E 135°19'6 7.8
2017-May-26 07:45N 34°37' E 135°26'0 0.0
2017-May-26 07:21N 34°37' E 135°26'0 0.0
2017-May-26 06:57N 34°37' E 135°26'0 0.0
2017-May-26 06:27N 34°37' E 135°26'0 0.0
2017-May-26 05:57N 34°37' E 135°26'0 0.0
2017-May-26 05:27N 34°37' E 135°26'0 0.0
2017-May-26 04:57N 34°37' E 135°26'0 0.0
2017-May-26 04:21N 34°37' E 135°26'0 0.0
2017-May-26 03:57N 34°37' E 135°26'0 0.0
2017-May-26 03:27N 34°37' E 135°26'0 0.0
2017-May-26 02:51N 34°37' E 135°26'0 0.0
2017-May-26 02:27N 34°37' E 135°26'0 0.0
2017-May-26 01:57N 34°37' E 135°26'0 0.0
2017-May-26 01:15N 34°37' E 135°26'0 0.0
2017-May-26 00:57N 34°37' E 135°26'0 0.0
2017-May-26 00:15N 34°37' E 135°26'0 0.0
2017-May-25 23:51N 34°37' E 135°26'0 0.0
2017-May-25 23:09N 34°37' E 135°26'0 0.0
2017-May-25 22:57N 34°37' E 135°26'0 0.0
2017-May-25 22:27N 34°37' E 135°26'0 0.0
2017-May-25 21:57N 34°37' E 135°26'0 0.0
2017-May-25 21:21N 34°37' E 135°26'0 0.0
2017-May-25 20:57N 34°37' E 135°26'0 0.0
2017-May-25 20:31N 34°37' E 135°26'2 4.8
2017-May-25 20:00N 34°38' E 135°23'917.1
2017-May-25 19:30N 34°35' E 135°13'1019.4
2017-May-25 19:00N 34°36' E 135°02'13 0.4
2017-May-24 09:39N 34°34' E 134°47'424.4
2017-May-24 09:30N 34°35' E 134°51'1223.3
2017-May-24 09:00N 34°36' E 135°05'1121.5
2017-May-24 08:30N 34°37' E 135°18'613.2
2017-May-24 08:00N 34°37' E 135°26'0 0.2
2017-May-24 07:25N 34°37' E 135°26'0 0.0
2017-May-24 06:55N 34°37' E 135°26'0 0.0
2017-May-24 06:25N 34°37' E 135°26'0 0.0
2017-May-24 05:55N 34°37' E 135°26'0 0.0
2017-May-24 05:25N 34°37' E 135°26'0 0.0
2017-May-24 04:55N 34°37' E 135°26'0 0.0
2017-May-24 04:19N 34°37' E 135°26'0 0.0
2017-May-24 03:55N 34°37' E 135°26'0 0.0
2017-May-24 03:19N 34°37' E 135°26'0 0.0
2017-May-24 02:49N 34°37' E 135°26'0 0.0
2017-May-24 02:19N 34°37' E 135°26'0 0.0
2017-May-24 01:49N 34°37' E 135°26'0 0.0
2017-May-24 01:25N 34°37' E 135°26'0 0.0
2017-May-24 00:55N 34°37' E 135°26'0 0.0
2017-May-24 00:25N 34°37' E 135°26'0 0.0
2017-May-23 23:55N 34°37' E 135°26'0 0.0
2017-May-23 23:31N 34°37' E 135°26'3 5.6
2017-May-23 23:00N 34°38' E 135°23'714.2
2017-May-23 22:30N 34°35' E 135°14'917.2
2017-May-23 22:00N 34°35' E 135°04'816.9
2017-May-23 21:30N 34°35' E 134°54'9 0.3
2017-May-22 12:53N 34°32' E 134°43'922.0
2017-May-22 12:29N 34°35' E 134°53'1020.1
2017-May-22 12:00N 34°36' E 135°05'1121.3
2017-May-22 11:30N 34°37' E 135°18'613.1
2017-May-22 11:00N 34°37' E 135°26'0 0.2
2017-May-22 10:29N 34°37' E 135°26'0 0.0
2017-May-22 09:59N 34°37' E 135°26'0 0.0
2017-May-22 09:29N 34°37' E 135°26'0 0.0
2017-May-22 08:59N 34°37' E 135°26'0 0.0
2017-May-22 08:17N 34°37' E 135°26'0 0.0
2017-May-22 07:59N 34°37' E 135°26'0 0.0
2017-May-22 07:29N 34°37' E 135°26'0 0.0
2017-May-22 06:59N 34°37' E 135°26'0 0.0
2017-May-22 06:29N 34°37' E 135°26'0 0.0
2017-May-22 05:53N 34°37' E 135°26'0 0.0
2017-May-22 05:29N 34°37' E 135°26'0 0.0
2017-May-22 04:53N 34°37' E 135°26'0 0.0
2017-May-22 04:29N 34°37' E 135°26'0 0.0
2017-May-22 03:59N 34°37' E 135°26'0 0.0
2017-May-22 03:29N 34°37' E 135°26'0 0.0
2017-May-22 02:59N 34°37' E 135°26'0 0.0
2017-May-22 02:29N 34°37' E 135°26'0 0.0
2017-May-22 01:59N 34°37' E 135°26'0 0.0
2017-May-22 01:29N 34°37' E 135°26'0 0.0
2017-May-22 00:59N 34°37' E 135°26'0 0.0
2017-May-22 00:23N 34°37' E 135°26'0 0.0
2017-May-21 23:47N 34°37' E 135°26'0 0.0
2017-May-21 23:29N 34°37' E 135°26'3 7.0
2017-May-21 23:00N 34°37' E 135°22'815.8
2017-May-21 22:30N 34°34' E 135°13'917.7
2017-May-21 22:00N 34°36' E 135°02'1019.1
2017-May-21 21:28N 34°33' E 134°50'6 0.2
2017-May-20 12:48N 34°33' E 134°43'721.9
2017-May-20 12:30N 34°35' E 134°50'1020.0
2017-May-20 12:00N 34°37' E 135°02'1020.9
2017-May-20 11:30N 34°36' E 135°15'917.6
2017-May-20 11:00N 34°37' E 135°25'0 0.9
2017-May-20 10:29N 34°37' E 135°26'0 0.0
2017-May-20 09:53N 34°37' E 135°26'0 0.0
2017-May-20 09:29N 34°37' E 135°26'0 0.0
2017-May-20 08:35N 34°37' E 135°26'0 0.0
2017-May-20 08:29N 34°37' E 135°26'0 0.0
2017-May-20 07:59N 34°37' E 135°26'0 0.0
2017-May-20 07:29N 34°37' E 135°26'0 0.0
2017-May-20 06:59N 34°37' E 135°26'0 0.0
2017-May-20 06:29N 34°37' E 135°26'0 0.0
2017-May-20 05:59N 34°37' E 135°26'0 0.0
2017-May-20 05:29N 34°37' E 135°26'0 0.0
2017-May-20 04:59N 34°37' E 135°26'0 0.0
2017-May-20 04:29N 34°37' E 135°26'0 0.0
2017-May-20 03:59N 34°37' E 135°26'0 0.0
2017-May-20 03:29N 34°37' E 135°26'0 0.0
2017-May-20 02:59N 34°37' E 135°26'0 0.0
2017-May-20 02:23N 34°37' E 135°26'0 0.0
2017-May-20 01:59N 34°37' E 135°26'0 0.0
2017-May-20 01:29N 34°37' E 135°26'0 0.0
2017-May-20 00:53N 34°37' E 135°26'0 0.0
2017-May-20 00:29N 34°37' E 135°26'0 0.0
2017-May-19 23:59N 34°37' E 135°26'0 0.0
2017-May-19 23:30N 34°37' E 135°26'3 7.0
2017-May-19 23:00N 34°37' E 135°22'815.1
2017-May-19 22:30N 34°35' E 135°13'  
Track history (hours):
 
Tides and Currents Weather Stations Pressure Air Temp Water Temp Dewpoint Dewpoint Depression Visibility Wind Speed Wind Dir Waves Ship Positions

Ferry Kyoto II

Last reported at 2017-May-29 22:26 UTC. Time now 2017-May-29 22:49 UTC.
Position N 34°37' E 135°26'.

Length 167 m; draft 5.9 m.

Type: Ship. MMSI: 431301641.

Date/timePositionNaut miles runAvg speedWind from/ knotsBaromVisibWave heightAir tempDewpointWater temp
2017-May-29 22:26N 34°37' E 135°26'0 0.0
2017-May-29 21:50N 34°37' E 135°26'0 0.0
2017-May-29 21:26N 34°37' E 135°26'0 0.0
2017-May-29 20:50N 34°37' E 135°26'0 0.0
2017-May-29 20:30N 34°37' E 135°26'4 8.3
2017-May-29 20:00N 34°37' E 135°21'1019.7
2017-May-29 19:30N 34°35' E 135°09'1019.5
2017-May-29 19:00N 34°36' E 134°57'1020.8
2017-May-29 18:30N 34°32' E 134°46'4 0.1
2017-May-28 09:38N 34°34' E 134°49'323.2
2017-May-28 09:30N 34°35' E 134°53'1019.9
2017-May-28 09:00N 34°36' E 135°05'1121.1
2017-May-28 08:30N 34°37' E 135°17'713.8
2017-May-28 08:01N 34°37' E 135°26'0 0.1
2017-May-28 07:29N 34°37' E 135°26'0 0.0
2017-May-28 06:59N 34°37' E 135°26'0 0.0
2017-May-28 06:29N 34°37' E 135°26'0 0.0
2017-May-28 05:59N 34°37' E 135°26'0 0.0
2017-May-28 05:29N 34°37' E 135°26'0 0.0
2017-May-28 04:59N 34°37' E 135°26'0 0.0
2017-May-28 04:29N 34°37' E 135°26'0 0.0
2017-May-28 03:47N 34°37' E 135°26'0 0.0
2017-May-28 03:29N 34°37' E 135°26'0 0.0
2017-May-28 02:59N 34°37' E 135°26'0 0.0
2017-May-28 02:29N 34°37' E 135°26'0 0.0
2017-May-28 01:59N 34°37' E 135°26'0 0.0
2017-May-28 01:29N 34°37' E 135°26'0 0.0
2017-May-28 00:59N 34°37' E 135°26'0 0.0
2017-May-28 00:29N 34°37' E 135°26'0 0.0
2017-May-27 23:59N 34°37' E 135°26'0 0.0
2017-May-27 23:23N 34°37' E 135°26'0 0.0
2017-May-27 22:59N 34°37' E 135°26'0 0.0
2017-May-27 22:29N 34°37' E 135°26'0 0.0
2017-May-27 21:59N 34°37' E 135°26'0 0.0
2017-May-27 21:29N 34°37' E 135°26'0 0.0
2017-May-27 20:59N 34°37' E 135°26'0 0.0
2017-May-27 20:30N 34°37' E 135°26'3 5.4
2017-May-27 20:00N 34°38' E 135°23'713.8
2017-May-27 19:30N 34°35' E 135°15'816.2
2017-May-27 19:00N 34°35' E 135°05'1020.1
2017-May-27 18:30N 34°35' E 134°53'4 0.1
2017-May-26 09:38N 34°34' E 134°48'325.2
2017-May-26 09:31N 34°35' E 134°52'1122.7
2017-May-26 09:00N 34°36' E 135°06'1121.5
2017-May-26 08:30N 34°37' E 135°19'6 7.8
2017-May-26 07:45N 34°37' E 135°26'0 0.0
2017-May-26 07:21N 34°37' E 135°26'0 0.0
2017-May-26 06:57N 34°37' E 135°26'0 0.0
2017-May-26 06:27N 34°37' E 135°26'0 0.0
2017-May-26 05:57N 34°37' E 135°26'0 0.0
2017-May-26 05:27N 34°37' E 135°26'0 0.0
2017-May-26 04:57N 34°37' E 135°26'0 0.0
2017-May-26 04:21N 34°37' E 135°26'0 0.0
2017-May-26 03:57N 34°37' E 135°26'0 0.0
2017-May-26 03:27N 34°37' E 135°26'0 0.0
2017-May-26 02:51N 34°37' E 135°26'0 0.0
2017-May-26 02:27N 34°37' E 135°26'0 0.0
2017-May-26 01:57N 34°37' E 135°26'0 0.0
2017-May-26 01:15N 34°37' E 135°26'0 0.0
2017-May-26 00:57N 34°37' E 135°26'0 0.0
2017-May-26 00:15N 34°37' E 135°26'0 0.0
2017-May-25 23:51N 34°37' E 135°26'0 0.0
2017-May-25 23:09N 34°37' E 135°26'0 0.0
2017-May-25 22:57N 34°37' E 135°26'0 0.0
2017-May-25 22:27N 34°37' E 135°26'0 0.0
2017-May-25 21:57N 34°37' E 135°26'0 0.0
2017-May-25 21:21N 34°37' E 135°26'0 0.0
2017-May-25 20:57N 34°37' E 135°26'0 0.0
2017-May-25 20:31N 34°37' E 135°26'2 4.8
2017-May-25 20:00N 34°38' E 135°23'917.1
2017-May-25 19:30N 34°35' E 135°13'1019.4
2017-May-25 19:00N 34°36' E 135°02'13 0.4
2017-May-24 09:39N 34°34' E 134°47'424.4
2017-May-24 09:30N 34°35' E 134°51'1223.3
2017-May-24 09:00N 34°36' E 135°05'1121.5
2017-May-24 08:30N 34°37' E 135°18'613.2
2017-May-24 08:00N 34°37' E 135°26'0 0.2
2017-May-24 07:25N 34°37' E 135°26'0 0.0
2017-May-24 06:55N 34°37' E 135°26'0 0.0
2017-May-24 06:25N 34°37' E 135°26'0 0.0
2017-May-24 05:55N 34°37' E 135°26'0 0.0
2017-May-24 05:25N 34°37' E 135°26'0 0.0
2017-May-24 04:55N 34°37' E 135°26'0 0.0
2017-May-24 04:19N 34°37' E 135°26'0 0.0
2017-May-24 03:55N 34°37' E 135°26'0 0.0
2017-May-24 03:19N 34°37' E 135°26'0 0.0
2017-May-24 02:49N 34°37' E 135°26'0 0.0
2017-May-24 02:19N 34°37' E 135°26'0 0.0
2017-May-24 01:49N 34°37' E 135°26'0 0.0
2017-May-24 01:25N 34°37' E 135°26'0 0.0
2017-May-24 00:55N 34°37' E 135°26'0 0.0
2017-May-24 00:25N 34°37' E 135°26'0 0.0
2017-May-23 23:55N 34°37' E 135°26'0 0.0
2017-May-23 23:31N 34°37' E 135°26'3 5.6
2017-May-23 23:00N 34°38' E 135°23'714.2
2017-May-23 22:30N 34°35' E 135°14'917.2
2017-May-23 22:00N 34°35' E 135°04'816.9
2017-May-23 21:30N 34°35' E 134°54'9 0.3
2017-May-22 12:53N 34°32' E 134°43'922.0
2017-May-22 12:29N 34°35' E 134°53'1020.1
2017-May-22 12:00N 34°36' E 135°05'1121.3
2017-May-22 11:30N 34°37' E 135°18'613.1
2017-May-22 11:00N 34°37' E 135°26'0 0.2
2017-May-22 10:29N 34°37' E 135°26'0 0.0
2017-May-22 09:59N 34°37' E 135°26'0 0.0
2017-May-22 09:29N 34°37' E 135°26'0 0.0
2017-May-22 08:59N 34°37' E 135°26'0 0.0
2017-May-22 08:17N 34°37' E 135°26'0 0.0
2017-May-22 07:59N 34°37' E 135°26'0 0.0
2017-May-22 07:29N 34°37' E 135°26'0 0.0
2017-May-22 06:59N 34°37' E 135°26'0 0.0
2017-May-22 06:29N 34°37' E 135°26'0 0.0
2017-May-22 05:53N 34°37' E 135°26'0 0.0
2017-May-22 05:29N 34°37' E 135°26'0 0.0
2017-May-22 04:53N 34°37' E 135°26'0 0.0
2017-May-22 04:29N 34°37' E 135°26'0 0.0
2017-May-22 03:59N 34°37' E 135°26'0 0.0
2017-May-22 03:29N 34°37' E 135°26'0 0.0
2017-May-22 02:59N 34°37' E 135°26'0 0.0
2017-May-22 02:29N 34°37' E 135°26'0 0.0
2017-May-22 01:59N 34°37' E 135°26'0 0.0
2017-May-22 01:29N 34°37' E 135°26'0 0.0
2017-May-22 00:59N 34°37' E 135°26'0 0.0
2017-May-22 00:23N 34°37' E 135°26'0 0.0
2017-May-21 23:47N 34°37' E 135°26'0 0.0
2017-May-21 23:29N 34°37' E 135°26'3 7.0
2017-May-21 23:00N 34°37' E 135°22'815.8
2017-May-21 22:30N 34°34' E 135°13'917.7
2017-May-21 22:00N 34°36' E 135°02'1019.1
2017-May-21 21:28N 34°33' E 134°50'6 0.2
2017-May-20 12:48N 34°33' E 134°43'721.9
2017-May-20 12:30N 34°35' E 134°50'1020.0
2017-May-20 12:00N 34°37' E 135°02'1020.9
2017-May-20 11:30N 34°36' E 135°15'917.6
2017-May-20 11:00N 34°37' E 135°25'0 0.9
2017-May-20 10:29N 34°37' E 135°26'0 0.0
2017-May-20 09:53N 34°37' E 135°26'0 0.0
2017-May-20 09:29N 34°37' E 135°26'0 0.0
2017-May-20 08:35N 34°37' E 135°26'0 0.0
2017-May-20 08:29N 34°37' E 135°26'0 0.0
2017-May-20 07:59N 34°37' E 135°26'0 0.0
2017-May-20 07:29N 34°37' E 135°26'0 0.0
2017-May-20 06:59N 34°37' E 135°26'0 0.0
2017-May-20 06:29N 34°37' E 135°26'0 0.0
2017-May-20 05:59N 34°37' E 135°26'0 0.0
2017-May-20 05:29N 34°37' E 135°26'0 0.0
2017-May-20 04:59N 34°37' E 135°26'0 0.0
2017-May-20 04:29N 34°37' E 135°26'0 0.0
2017-May-20 03:59N 34°37' E 135°26'0 0.0
2017-May-20 03:29N 34°37' E 135°26'0 0.0
2017-May-20 02:59N 34°37' E 135°26'0 0.0
2017-May-20 02:23N 34°37' E 135°26'0 0.0
2017-May-20 01:59N 34°37' E 135°26'0 0.0
2017-May-20 01:29N 34°37' E 135°26'0 0.0
2017-May-20 00:53N 34°37' E 135°26'0 0.0
2017-May-20 00:29N 34°37' E 135°26'0 0.0
2017-May-19 23:59N 34°37' E 135°26'0 0.0
2017-May-19 23:30N 34°37' E 135°26'3 7.0
2017-May-19 23:00N 34°37' E 135°22'815.1
2017-May-19 22:30N 34°35' E 135°13'  

Dump ship's entire track history